Apison, Tennessee
Current Conditions -  °F | °C
As of 5:15 AM on Monday 26 Jan 2015 (Local Time) from KCHA Reporting Station
Overcast Overcast  
Wind Chill: 42°   Ceiling: 3300
Heat Index: 46°   Visibility: 10mi
Dew Point: 39°   Wind: 8mph
Humidity: 76%   Direction: 300°WNW
Pressure: 29.75"   Gusts: NA
Location:  35.02°N, 85.02°W
Report Text: KCHA 261015Z AUTO 30007KT 10SM SCT026 BKN033 OVC055 08/04 A2975 RMK AO2 T00780039 $
Loading
Personal Weather Stations






























Interactive Weather Map New forecast layout! Learn more

10-Day Weather Forecast

Advertisements
Track Severe Weather on mobile